sensor_id;sensor_type;location;lat;lon;timestamp;P1;durP1;ratioP1;P2;durP2;ratioP2
22543;SDS011;11438;52.044;8.716;2023-08-06T00:00:02;3.55;;;1.20;;
22543;SDS011;11438;52.044;8.716;2023-08-06T00:02:28;1.33;;;1.10;;
22543;SDS011;11438;52.044;8.716;2023-08-06T00:04:53;4.32;;;1.38;;
22543;SDS011;11438;52.044;8.716;2023-08-06T00:07:19;1.67;;;1.27;;
22543;SDS011;11438;52.044;8.716;2023-08-06T00:09:45;1.52;;;1.00;;
22543;SDS011;11438;52.044;8.716;2023-08-06T00:12:10;1.88;;;1.20;;
22543;SDS011;11438;52.044;8.716;2023-08-06T00:14:36;1.63;;;1.05;;
22543;SDS011;11438;52.044;8.716;2023-08-06T00:17:01;1.55;;;1.20;;
22543;SDS011;11438;52.044;8.716;2023-08-06T00:19:27;2.35;;;1.13;;
22543;SDS011;11438;52.044;8.716;2023-08-06T00:21:53;2.60;;;1.50;;
22543;SDS011;11438;52.044;8.716;2023-08-06T00:24:18;2.38;;;1.40;;
22543;SDS011;11438;52.044;8.716;2023-08-06T00:26:44;2.20;;;1.20;;
22543;SDS011;11438;52.044;8.716;2023-08-06T00:29:09;3.10;;;1.08;;
22543;SDS011;11438;52.044;8.716;2023-08-06T00:31:35;1.52;;;1.13;;
22543;SDS011;11438;52.044;8.716;2023-08-06T00:34:00;1.45;;;1.10;;
22543;SDS011;11438;52.044;8.716;2023-08-06T00:36:26;2.38;;;1.17;;
22543;SDS011;11438;52.044;8.716;2023-08-06T00:38:51;2.80;;;1.13;;
22543;SDS011;11438;52.044;8.716;2023-08-06T00:41:17;2.22;;;1.15;;
22543;SDS011;11438;52.044;8.716;2023-08-06T00:43:42;1.77;;;1.15;;
22543;SDS011;11438;52.044;8.716;2023-08-06T00:46:08;2.20;;;1.40;;
22543;SDS011;11438;52.044;8.716;2023-08-06T00:48:34;2.63;;;1.02;;
22543;SDS011;11438;52.044;8.716;2023-08-06T00:51:00;1.67;;;1.10;;
22543;SDS011;11438;52.044;8.716;2023-08-06T00:53:26;1.58;;;1.00;;
22543;SDS011;11438;52.044;8.716;2023-08-06T00:55:52;1.63;;;1.10;;
22543;SDS011;11438;52.044;8.716;2023-08-06T00:58:18;2.20;;;1.30;;
22543;SDS011;11438;52.044;8.716;2023-08-06T01:00:43;2.67;;;1.52;;
22543;SDS011;11438;52.044;8.716;2023-08-06T01:03:09;1.98;;;1.20;;
22543;SDS011;11438;52.044;8.716;2023-08-06T01:05:35;2.55;;;1.30;;
22543;SDS011;11438;52.044;8.716;2023-08-06T01:08:30;1.65;;;1.17;;
22543;SDS011;11438;52.044;8.716;2023-08-06T01:14:18;1.45;;;1.10;;
22543;SDS011;11438;52.044;8.716;2023-08-06T01:16:46;2.03;;;1.48;;
22543;SDS011;11438;52.044;8.716;2023-08-06T01:19:16;1.52;;;1.23;;
22543;SDS011;11438;52.044;8.716;2023-08-06T01:21:45;1.90;;;1.45;;
22543;SDS011;11438;52.044;8.716;2023-08-06T01:24:10;2.95;;;1.20;;
22543;SDS011;11438;52.044;8.716;2023-08-06T01:26:38;1.70;;;1.30;;
22543;SDS011;11438;52.044;8.716;2023-08-06T01:29:14;1.50;;;1.02;;
22543;SDS011;11438;52.044;8.716;2023-08-06T01:31:48;6.22;;;1.40;;
22543;SDS011;11438;52.044;8.716;2023-08-06T01:34:17;1.73;;;1.20;;
22543;SDS011;11438;52.044;8.716;2023-08-06T01:36:45;2.75;;;1.38;;
22543;SDS011;11438;52.044;8.716;2023-08-06T01:39:11;2.30;;;1.55;;
22543;SDS011;11438;52.044;8.716;2023-08-06T01:41:37;4.38;;;1.15;;
22543;SDS011;11438;52.044;8.716;2023-08-06T01:44:02;1.67;;;1.20;;
22543;SDS011;11438;52.044;8.716;2023-08-06T01:46:28;2.97;;;1.30;;
22543;SDS011;11438;52.044;8.716;2023-08-06T01:48:53;1.40;;;1.10;;
22543;SDS011;11438;52.044;8.716;2023-08-06T01:51:19;4.15;;;1.40;;
22543;SDS011;11438;52.044;8.716;2023-08-06T01:53:44;3.28;;;1.20;;
22543;SDS011;11438;52.044;8.716;2023-08-06T01:56:10;2.75;;;1.30;;
22543;SDS011;11438;52.044;8.716;2023-08-06T01:58:35;2.47;;;1.45;;
22543;SDS011;11438;52.044;8.716;2023-08-06T02:01:01;2.20;;;1.30;;
22543;SDS011;11438;52.044;8.716;2023-08-06T02:03:27;2.47;;;1.35;;
22543;SDS011;11438;52.044;8.716;2023-08-06T02:05:53;2.10;;;1.13;;
22543;SDS011;11438;52.044;8.716;2023-08-06T02:08:18;2.92;;;1.40;;
22543;SDS011;11438;52.044;8.716;2023-08-06T02:10:44;2.95;;;1.27;;
22543;SDS011;11438;52.044;8.716;2023-08-06T02:13:10;1.83;;;1.35;;
22543;SDS011;11438;52.044;8.716;2023-08-06T02:15:36;2.65;;;1.55;;
22543;SDS011;11438;52.044;8.716;2023-08-06T02:18:07;1.55;;;1.20;;
22543;SDS011;11438;52.044;8.716;2023-08-06T02:20:32;1.52;;;1.02;;
22543;SDS011;11438;52.044;8.716;2023-08-06T02:22:58;1.63;;;1.30;;
22543;SDS011;11438;52.044;8.716;2023-08-06T02:25:23;2.30;;;1.27;;
22543;SDS011;11438;52.044;8.716;2023-08-06T02:27:49;1.75;;;1.20;;
22543;SDS011;11438;52.044;8.716;2023-08-06T02:30:14;1.67;;;1.25;;
22543;SDS011;11438;52.044;8.716;2023-08-06T02:32:40;2.20;;;1.50;;
22543;SDS011;11438;52.044;8.716;2023-08-06T02:35:06;1.98;;;1.55;;
22543;SDS011;11438;52.044;8.716;2023-08-06T02:37:33;4.30;;;1.50;;
22543;SDS011;11438;52.044;8.716;2023-08-06T02:39:59;2.13;;;1.50;;
22543;SDS011;11438;52.044;8.716;2023-08-06T02:42:24;2.55;;;1.10;;
22543;SDS011;11438;52.044;8.716;2023-08-06T02:44:51;2.35;;;1.50;;
22543;SDS011;11438;52.044;8.716;2023-08-06T02:47:19;4.80;;;1.55;;
22543;SDS011;11438;52.044;8.716;2023-08-06T02:49:45;2.55;;;1.38;;
22543;SDS011;11438;52.044;8.716;2023-08-06T02:52:11;1.58;;;1.13;;
22543;SDS011;11438;52.044;8.716;2023-08-06T02:54:36;3.33;;;1.40;;
22543;SDS011;11438;52.044;8.716;2023-08-06T02:57:02;2.53;;;1.30;;
22543;SDS011;11438;52.044;8.716;2023-08-06T02:59:27;2.60;;;1.30;;
22543;SDS011;11438;52.044;8.716;2023-08-06T03:01:53;3.63;;;1.65;;
22543;SDS011;11438;52.044;8.716;2023-08-06T03:04:18;2.42;;;1.70;;
22543;SDS011;11438;52.044;8.716;2023-08-06T03:06:44;1.92;;;1.48;;
22543;SDS011;11438;52.044;8.716;2023-08-06T03:09:09;2.38;;;1.40;;
22543;SDS011;11438;52.044;8.716;2023-08-06T03:11:35;1.77;;;1.27;;
22543;SDS011;11438;52.044;8.716;2023-08-06T03:14:00;3.20;;;1.25;;
22543;SDS011;11438;52.044;8.716;2023-08-06T03:16:26;1.77;;;1.50;;
22543;SDS011;11438;52.044;8.716;2023-08-06T03:18:52;2.70;;;1.70;;
22543;SDS011;11438;52.044;8.716;2023-08-06T03:21:17;2.20;;;1.20;;
22543;SDS011;11438;52.044;8.716;2023-08-06T03:23:43;2.90;;;1.70;;
22543;SDS011;11438;52.044;8.716;2023-08-06T03:26:11;2.28;;;1.50;;
22543;SDS011;11438;52.044;8.716;2023-08-06T03:28:36;2.40;;;1.65;;
22543;SDS011;11438;52.044;8.716;2023-08-06T03:31:02;3.95;;;1.25;;
22543;SDS011;11438;52.044;8.716;2023-08-06T03:33:29;1.90;;;1.40;;
22543;SDS011;11438;52.044;8.716;2023-08-06T03:35:55;2.88;;;1.60;;
22543;SDS011;11438;52.044;8.716;2023-08-06T03:38:21;2.75;;;1.42;;
22543;SDS011;11438;52.044;8.716;2023-08-06T03:40:47;2.75;;;1.70;;
22543;SDS011;11438;52.044;8.716;2023-08-06T03:43:13;4.70;;;2.00;;
22543;SDS011;11438;52.044;8.716;2023-08-06T03:45:38;3.25;;;1.60;;
22543;SDS011;11438;52.044;8.716;2023-08-06T03:48:05;2.03;;;1.65;;
22543;SDS011;11438;52.044;8.716;2023-08-06T03:50:31;2.53;;;1.83;;
22543;SDS011;11438;52.044;8.716;2023-08-06T03:52:56;2.33;;;1.60;;
22543;SDS011;11438;52.044;8.716;2023-08-06T03:55:22;3.88;;;1.60;;
22543;SDS011;11438;52.044;8.716;2023-08-06T03:57:47;3.22;;;1.80;;
22543;SDS011;11438;52.044;8.716;2023-08-06T04:00:13;3.63;;;1.50;;
22543;SDS011;11438;52.044;8.716;2023-08-06T04:02:38;4.35;;;1.80;;
22543;SDS011;11438;52.044;8.716;2023-08-06T04:05:04;1.95;;;1.42;;
22543;SDS011;11438;52.044;8.716;2023-08-06T04:07:30;2.70;;;1.90;;
22543;SDS011;11438;52.044;8.716;2023-08-06T04:09:59;1.65;;;1.30;;
22543;SDS011;11438;52.044;8.716;2023-08-06T04:12:26;2.28;;;1.60;;
22543;SDS011;11438;52.044;8.716;2023-08-06T04:14:51;3.17;;;1.80;;
22543;SDS011;11438;52.044;8.716;2023-08-06T04:17:18;9.57;;;1.85;;
22543;SDS011;11438;52.044;8.716;2023-08-06T04:19:45;2.00;;;1.33;;
22543;SDS011;11438;52.044;8.716;2023-08-06T04:22:15;2.25;;;1.65;;
22543;SDS011;11438;52.044;8.716;2023-08-06T04:24:41;3.33;;;1.50;;
22543;SDS011;11438;52.044;8.716;2023-08-06T04:27:07;3.50;;;1.70;;
22543;SDS011;11438;52.044;8.716;2023-08-06T04:29:33;2.40;;;1.65;;
22543;SDS011;11438;52.044;8.716;2023-08-06T04:31:59;3.67;;;1.50;;
22543;SDS011;11438;52.044;8.716;2023-08-06T04:34:24;1.88;;;1.60;;
22543;SDS011;11438;52.044;8.716;2023-08-06T04:36:50;2.38;;;1.75;;
22543;SDS011;11438;52.044;8.716;2023-08-06T04:39:15;3.00;;;1.60;;
22543;SDS011;11438;52.044;8.716;2023-08-06T04:41:41;3.30;;;1.50;;
22543;SDS011;11438;52.044;8.716;2023-08-06T04:44:06;3.30;;;1.40;;
22543;SDS011;11438;52.044;8.716;2023-08-06T04:46:32;2.22;;;1.50;;
22543;SDS011;11438;52.044;8.716;2023-08-06T04:48:57;2.25;;;1.55;;
22543;SDS011;11438;52.044;8.716;2023-08-06T04:51:23;1.83;;;1.60;;
22543;SDS011;11438;52.044;8.716;2023-08-06T04:53:48;2.42;;;1.70;;
22543;SDS011;11438;52.044;8.716;2023-08-06T04:56:14;2.45;;;1.63;;
22543;SDS011;11438;52.044;8.716;2023-08-06T04:58:39;2.33;;;1.58;;
22543;SDS011;11438;52.044;8.716;2023-08-06T05:01:05;2.47;;;1.80;;
22543;SDS011;11438;52.044;8.716;2023-08-06T05:03:31;3.85;;;1.50;;
22543;SDS011;11438;52.044;8.716;2023-08-06T05:05:57;3.05;;;1.40;;
22543;SDS011;11438;52.044;8.716;2023-08-06T05:08:22;2.22;;;1.58;;
22543;SDS011;11438;52.044;8.716;2023-08-06T05:10:48;2.50;;;1.83;;
22543;SDS011;11438;52.044;8.716;2023-08-06T05:13:13;1.90;;;1.63;;
22543;SDS011;11438;52.044;8.716;2023-08-06T05:15:39;2.85;;;1.85;;
22543;SDS011;11438;52.044;8.716;2023-08-06T05:18:07;3.17;;;1.70;;
22543;SDS011;11438;52.044;8.716;2023-08-06T05:20:35;1.98;;;1.52;;
22543;SDS011;11438;52.044;8.716;2023-08-06T05:23:02;2.92;;;1.70;;
22543;SDS011;11438;52.044;8.716;2023-08-06T05:25:28;3.05;;;1.90;;
22543;SDS011;11438;52.044;8.716;2023-08-06T05:27:53;3.15;;;1.45;;
22543;SDS011;11438;52.044;8.716;2023-08-06T05:30:19;2.50;;;1.63;;
22543;SDS011;11438;52.044;8.716;2023-08-06T05:32:44;2.95;;;1.75;;
22543;SDS011;11438;52.044;8.716;2023-08-06T05:35:10;3.47;;;1.80;;
22543;SDS011;11438;52.044;8.716;2023-08-06T05:37:35;1.92;;;1.70;;
22543;SDS011;11438;52.044;8.716;2023-08-06T05:40:01;1.90;;;1.50;;
22543;SDS011;11438;52.044;8.716;2023-08-06T05:42:27;1.70;;;1.40;;
22543;SDS011;11438;52.044;8.716;2023-08-06T05:44:53;1.90;;;1.67;;
22543;SDS011;11438;52.044;8.716;2023-08-06T05:47:18;3.17;;;1.52;;
22543;SDS011;11438;52.044;8.716;2023-08-06T05:49:44;4.60;;;1.77;;
22543;SDS011;11438;52.044;8.716;2023-08-06T05:52:10;1.80;;;1.50;;
22543;SDS011;11438;52.044;8.716;2023-08-06T05:54:36;1.55;;;1.40;;
22543;SDS011;11438;52.044;8.716;2023-08-06T05:57:02;5.70;;;1.70;;
22543;SDS011;11438;52.044;8.716;2023-08-06T05:59:28;2.22;;;1.65;;
22543;SDS011;11438;52.044;8.716;2023-08-06T06:01:53;2.42;;;1.50;;
22543;SDS011;11438;52.044;8.716;2023-08-06T06:04:19;2.65;;;1.83;;
22543;SDS011;11438;52.044;8.716;2023-08-06T06:06:44;2.70;;;1.52;;
22543;SDS011;11438;52.044;8.716;2023-08-06T06:09:10;2.92;;;1.63;;
22543;SDS011;11438;52.044;8.716;2023-08-06T06:11:35;2.95;;;1.80;;
22543;SDS011;11438;52.044;8.716;2023-08-06T06:14:01;2.50;;;1.80;;
22543;SDS011;11438;52.044;8.716;2023-08-06T06:16:26;3.75;;;1.75;;
22543;SDS011;11438;52.044;8.716;2023-08-06T06:18:52;3.30;;;1.70;;
22543;SDS011;11438;52.044;8.716;2023-08-06T06:21:19;3.90;;;1.88;;
22543;SDS011;11438;52.044;8.716;2023-08-06T06:23:45;2.70;;;1.40;;
22543;SDS011;11438;52.044;8.716;2023-08-06T06:26:10;2.55;;;1.67;;
22543;SDS011;11438;52.044;8.716;2023-08-06T06:28:36;4.95;;;1.85;;
22543;SDS011;11438;52.044;8.716;2023-08-06T06:31:01;3.88;;;1.77;;
22543;SDS011;11438;52.044;8.716;2023-08-06T06:33:28;3.13;;;1.65;;
22543;SDS011;11438;52.044;8.716;2023-08-06T06:35:54;2.15;;;1.60;;
22543;SDS011;11438;52.044;8.716;2023-08-06T06:38:19;3.42;;;1.95;;
22543;SDS011;11438;52.044;8.716;2023-08-06T06:40:54;2.53;;;1.75;;
22543;SDS011;11438;52.044;8.716;2023-08-06T06:43:20;1.80;;;1.60;;
22543;SDS011;11438;52.044;8.716;2023-08-06T06:45:46;1.95;;;1.67;;
22543;SDS011;11438;52.044;8.716;2023-08-06T06:48:11;3.38;;;1.92;;
22543;SDS011;11438;52.044;8.716;2023-08-06T06:50:37;2.05;;;1.65;;
22543;SDS011;11438;52.044;8.716;2023-08-06T06:53:04;2.28;;;1.80;;
22543;SDS011;11438;52.044;8.716;2023-08-06T06:55:29;3.25;;;2.00;;
22543;SDS011;11438;52.044;8.716;2023-08-06T06:57:55;3.05;;;2.00;;
22543;SDS011;11438;52.044;8.716;2023-08-06T07:00:21;2.50;;;2.05;;
22543;SDS011;11438;52.044;8.716;2023-08-06T07:02:46;6.78;;;2.20;;
22543;SDS011;11438;52.044;8.716;2023-08-06T07:05:12;2.22;;;1.85;;
22543;SDS011;11438;52.044;8.716;2023-08-06T07:07:37;3.30;;;1.88;;
22543;SDS011;11438;52.044;8.716;2023-08-06T07:10:03;2.35;;;1.90;;
22543;SDS011;11438;52.044;8.716;2023-08-06T07:12:28;3.15;;;2.08;;
22543;SDS011;11438;52.044;8.716;2023-08-06T07:14:54;3.47;;;2.70;;
22543;SDS011;11438;52.044;8.716;2023-08-06T07:17:20;3.17;;;2.22;;
22543;SDS011;11438;52.044;8.716;2023-08-06T07:19:45;2.70;;;2.33;;
22543;SDS011;11438;52.044;8.716;2023-08-06T07:22:11;4.93;;;2.40;;
22543;SDS011;11438;52.044;8.716;2023-08-06T07:24:36;2.50;;;2.08;;
22543;SDS011;11438;52.044;8.716;2023-08-06T07:27:02;2.10;;;1.90;;
22543;SDS011;11438;52.044;8.716;2023-08-06T07:29:28;2.47;;;2.28;;
22543;SDS011;11438;52.044;8.716;2023-08-06T07:31:53;3.72;;;2.38;;
22543;SDS011;11438;52.044;8.716;2023-08-06T07:34:20;2.30;;;1.95;;
22543;SDS011;11438;52.044;8.716;2023-08-06T07:36:46;2.30;;;2.03;;
22543;SDS011;11438;52.044;8.716;2023-08-06T07:39:12;4.15;;;2.20;;
22543;SDS011;11438;52.044;8.716;2023-08-06T07:41:37;2.20;;;2.00;;
22543;SDS011;11438;52.044;8.716;2023-08-06T07:44:03;3.17;;;2.30;;
22543;SDS011;11438;52.044;8.716;2023-08-06T07:46:29;2.05;;;1.77;;
22543;SDS011;11438;52.044;8.716;2023-08-06T07:48:55;2.60;;;2.10;;
22543;SDS011;11438;52.044;8.716;2023-08-06T07:51:20;2.78;;;1.95;;
22543;SDS011;11438;52.044;8.716;2023-08-06T07:53:46;2.20;;;2.00;;
22543;SDS011;11438;52.044;8.716;2023-08-06T07:56:12;2.38;;;2.10;;
22543;SDS011;11438;52.044;8.716;2023-08-06T07:58:37;3.33;;;2.17;;
22543;SDS011;11438;52.044;8.716;2023-08-06T08:01:03;2.92;;;2.08;;
22543;SDS011;11438;52.044;8.716;2023-08-06T08:03:28;3.47;;;1.83;;
22543;SDS011;11438;52.044;8.716;2023-08-06T08:05:54;2.42;;;2.10;;
22543;SDS011;11438;52.044;8.716;2023-08-06T08:08:23;4.25;;;2.00;;
22543;SDS011;11438;52.044;8.716;2023-08-06T08:10:49;3.45;;;2.25;;
22543;SDS011;11438;52.044;8.716;2023-08-06T08:13:15;3.38;;;1.90;;
22543;SDS011;11438;52.044;8.716;2023-08-06T08:15:40;2.38;;;1.73;;
22543;SDS011;11438;52.044;8.716;2023-08-06T08:18:06;1.90;;;1.70;;
22543;SDS011;11438;52.044;8.716;2023-08-06T08:20:33;4.57;;;1.77;;
22543;SDS011;11438;52.044;8.716;2023-08-06T08:23:00;2.55;;;2.10;;
22543;SDS011;11438;52.044;8.716;2023-08-06T08:25:26;2.40;;;1.98;;
22543;SDS011;11438;52.044;8.716;2023-08-06T08:27:53;2.15;;;1.92;;
22543;SDS011;11438;52.044;8.716;2023-08-06T08:30:19;2.47;;;1.92;;
22543;SDS011;11438;52.044;8.716;2023-08-06T08:32:45;2.78;;;1.73;;
22543;SDS011;11438;52.044;8.716;2023-08-06T08:35:11;3.65;;;1.60;;
22543;SDS011;11438;52.044;8.716;2023-08-06T08:37:38;2.80;;;1.75;;
22543;SDS011;11438;52.044;8.716;2023-08-06T08:40:04;2.83;;;1.63;;
22543;SDS011;11438;52.044;8.716;2023-08-06T08:42:33;1.95;;;1.73;;
22543;SDS011;11438;52.044;8.716;2023-08-06T08:45:00;2.42;;;1.70;;
22543;SDS011;11438;52.044;8.716;2023-08-06T08:47:29;2.85;;;1.50;;
22543;SDS011;11438;52.044;8.716;2023-08-06T08:49:56;2.00;;;1.70;;
22543;SDS011;11438;52.044;8.716;2023-08-06T08:52:23;1.48;;;1.38;;
22543;SDS011;11438;52.044;8.716;2023-08-06T08:54:50;1.75;;;1.42;;
22543;SDS011;11438;52.044;8.716;2023-08-06T08:57:18;2.15;;;1.60;;
22543;SDS011;11438;52.044;8.716;2023-08-06T08:59:45;2.80;;;1.85;;
22543;SDS011;11438;52.044;8.716;2023-08-06T09:02:11;1.88;;;1.50;;
22543;SDS011;11438;52.044;8.716;2023-08-06T09:04:40;4.72;;;2.00;;
22543;SDS011;11438;52.044;8.716;2023-08-06T09:07:09;2.42;;;1.98;;
22543;SDS011;11438;52.044;8.716;2023-08-06T09:09:38;2.40;;;1.35;;
22543;SDS011;11438;52.044;8.716;2023-08-06T09:12:07;2.67;;;1.50;;
22543;SDS011;11438;52.044;8.716;2023-08-06T09:14:37;1.70;;;1.60;;
22543;SDS011;11438;52.044;8.716;2023-08-06T09:17:03;2.65;;;1.70;;
22543;SDS011;11438;52.044;8.716;2023-08-06T09:19:29;1.98;;;1.42;;
22543;SDS011;11438;52.044;8.716;2023-08-06T09:21:55;7.05;;;1.63;;
22543;SDS011;11438;52.044;8.716;2023-08-06T09:24:22;2.00;;;1.60;;
22543;SDS011;11438;52.044;8.716;2023-08-06T09:26:47;1.33;;;1.20;;
22543;SDS011;11438;52.044;8.716;2023-08-06T09:29:15;2.33;;;1.30;;
22543;SDS011;11438;52.044;8.716;2023-08-06T09:31:41;1.48;;;1.38;;
22543;SDS011;11438;52.044;8.716;2023-08-06T09:34:14;2.10;;;1.20;;
22543;SDS011;11438;52.044;8.716;2023-08-06T09:36:51;1.40;;;1.30;;
22543;SDS011;11438;52.044;8.716;2023-08-06T09:39:25;1.48;;;1.25;;
22543;SDS011;11438;52.044;8.716;2023-08-06T09:41:58;1.75;;;1.50;;
22543;SDS011;11438;52.044;8.716;2023-08-06T09:44:25;1.27;;;1.13;;
22543;SDS011;11438;52.044;8.716;2023-08-06T09:46:58;2.47;;;1.60;;
22543;SDS011;11438;52.044;8.716;2023-08-06T09:49:26;1.90;;;1.60;;
22543;SDS011;11438;52.044;8.716;2023-08-06T09:51:59;1.80;;;1.35;;
22543;SDS011;11438;52.044;8.716;2023-08-06T09:54:25;1.30;;;1.10;;
22543;SDS011;11438;52.044;8.716;2023-08-06T09:56:54;2.30;;;1.30;;
22543;SDS011;11438;52.044;8.716;2023-08-06T09:59:21;1.63;;;1.13;;
22543;SDS011;11438;52.044;8.716;2023-08-06T10:01:50;1.73;;;1.30;;
22543;SDS011;11438;52.044;8.716;2023-08-06T10:04:16;2.40;;;1.40;;
22543;SDS011;11438;52.044;8.716;2023-08-06T10:06:43;1.38;;;1.27;;
22543;SDS011;11438;52.044;8.716;2023-08-06T10:09:12;1.30;;;1.20;;
22543;SDS011;11438;52.044;8.716;2023-08-06T10:11:38;1.63;;;1.10;;
22543;SDS011;11438;52.044;8.716;2023-08-06T10:14:12;1.15;;;1.00;;
22543;SDS011;11438;52.044;8.716;2023-08-06T10:16:41;1.67;;;1.30;;
22543;SDS011;11438;52.044;8.716;2023-08-06T10:19:09;1.42;;;1.20;;
22543;SDS011;11438;52.044;8.716;2023-08-06T10:21:39;1.73;;;0.98;;
22543;SDS011;11438;52.044;8.716;2023-08-06T10:24:07;1.42;;;1.10;;
22543;SDS011;11438;52.044;8.716;2023-08-06T10:26:36;1.90;;;1.25;;
22543;SDS011;11438;52.044;8.716;2023-08-06T10:29:28;1.40;;;1.02;;
22543;SDS011;11438;52.044;8.716;2023-08-06T10:32:01;1.42;;;1.20;;
22543;SDS011;11438;52.044;8.716;2023-08-06T10:34:52;1.70;;;1.33;;
22543;SDS011;11438;52.044;8.716;2023-08-06T10:37:20;2.83;;;1.02;;
22543;SDS011;11438;52.044;8.716;2023-08-06T10:39:53;1.27;;;1.10;;
22543;SDS011;11438;52.044;8.716;2023-08-06T10:42:19;2.45;;;1.30;;
22543;SDS011;11438;52.044;8.716;2023-08-06T10:47:38;1.40;;;1.23;;
22543;SDS011;11438;52.044;8.716;2023-08-06T10:50:07;3.47;;;1.13;;
22543;SDS011;11438;52.044;8.716;2023-08-06T10:52:35;1.20;;;1.10;;
22543;SDS011;11438;52.044;8.716;2023-08-06T10:55:01;2.30;;;1.30;;
22543;SDS011;11438;52.044;8.716;2023-08-06T10:57:26;1.10;;;1.00;;
22543;SDS011;11438;52.044;8.716;2023-08-06T10:59:52;1.58;;;1.15;;
22543;SDS011;11438;52.044;8.716;2023-08-06T11:02:17;1.92;;;1.35;;
22543;SDS011;11438;52.044;8.716;2023-08-06T11:04:43;2.15;;;1.20;;
22543;SDS011;11438;52.044;8.716;2023-08-06T11:07:09;3.30;;;1.40;;
22543;SDS011;11438;52.044;8.716;2023-08-06T11:09:35;1.20;;;1.10;;
22543;SDS011;11438;52.044;8.716;2023-08-06T11:12:00;1.73;;;1.17;;
22543;SDS011;11438;52.044;8.716;2023-08-06T11:14:26;1.65;;;1.00;;
22543;SDS011;11438;52.044;8.716;2023-08-06T11:16:51;2.35;;;1.30;;
22543;SDS011;11438;52.044;8.716;2023-08-06T11:19:17;1.63;;;0.90;;
22543;SDS011;11438;52.044;8.716;2023-08-06T11:21:43;1.80;;;1.23;;
22543;SDS011;11438;52.044;8.716;2023-08-06T11:24:12;1.20;;;1.10;;
22543;SDS011;11438;52.044;8.716;2023-08-06T11:26:37;1.50;;;1.20;;
22543;SDS011;11438;52.044;8.716;2023-08-06T11:29:05;1.58;;;1.20;;
22543;SDS011;11438;52.044;8.716;2023-08-06T11:31:30;1.73;;;0.98;;
22543;SDS011;11438;52.044;8.716;2023-08-06T11:33:56;2.15;;;1.30;;
22543;SDS011;11438;52.044;8.716;2023-08-06T11:36:28;2.05;;;1.10;;
22543;SDS011;11438;52.044;8.716;2023-08-06T11:38:58;1.95;;;1.23;;
22543;SDS011;11438;52.044;8.716;2023-08-06T11:41:24;3.47;;;1.38;;
22543;SDS011;11438;52.044;8.716;2023-08-06T11:43:50;2.35;;;1.00;;
22543;SDS011;11438;52.044;8.716;2023-08-06T11:46:16;2.08;;;1.30;;
22543;SDS011;11438;52.044;8.716;2023-08-06T11:48:54;2.17;;;1.02;;
22543;SDS011;11438;52.044;8.716;2023-08-06T11:51:27;1.80;;;1.25;;
22543;SDS011;11438;52.044;8.716;2023-08-06T11:53:56;2.22;;;1.05;;
22543;SDS011;11438;52.044;8.716;2023-08-06T11:56:23;1.95;;;1.20;;
22543;SDS011;11438;52.044;8.716;2023-08-06T11:58:50;2.08;;;1.00;;
22543;SDS011;11438;52.044;8.716;2023-08-06T12:01:15;1.35;;;0.98;;
22543;SDS011;11438;52.044;8.716;2023-08-06T12:03:41;1.20;;;1.10;;
22543;SDS011;11438;52.044;8.716;2023-08-06T12:06:06;1.40;;;1.10;;
22543;SDS011;11438;52.044;8.716;2023-08-06T12:08:32;1.42;;;1.17;;
22543;SDS011;11438;52.044;8.716;2023-08-06T12:10:58;1.48;;;0.90;;
22543;SDS011;11438;52.044;8.716;2023-08-06T12:13:24;2.80;;;1.10;;
22543;SDS011;11438;52.044;8.716;2023-08-06T12:15:49;1.80;;;1.13;;
22543;SDS011;11438;52.044;8.716;2023-08-06T12:18:17;1.13;;;1.02;;
22543;SDS011;11438;52.044;8.716;2023-08-06T12:20:43;1.65;;;1.17;;
22543;SDS011;11438;52.044;8.716;2023-08-06T12:23:09;1.20;;;1.10;;
22543;SDS011;11438;52.044;8.716;2023-08-06T12:25:34;1.25;;;1.02;;
22543;SDS011;11438;52.044;8.716;2023-08-06T12:28:00;2.10;;;1.27;;
22543;SDS011;11438;52.044;8.716;2023-08-06T12:30:26;1.95;;;1.27;;
22543;SDS011;11438;52.044;8.716;2023-08-06T12:32:51;1.73;;;1.33;;
22543;SDS011;11438;52.044;8.716;2023-08-06T12:35:17;2.58;;;1.20;;
22543;SDS011;11438;52.044;8.716;2023-08-06T12:37:42;1.63;;;1.20;;
22543;SDS011;11438;52.044;8.716;2023-08-06T12:40:09;1.67;;;1.10;;
22543;SDS011;11438;52.044;8.716;2023-08-06T12:42:35;2.25;;;1.00;;
22543;SDS011;11438;52.044;8.716;2023-08-06T12:45:00;1.52;;;0.98;;
22543;SDS011;11438;52.044;8.716;2023-08-06T12:47:26;1.30;;;1.10;;
22543;SDS011;11438;52.044;8.716;2023-08-06T12:49:51;1.25;;;0.80;;
22543;SDS011;11438;52.044;8.716;2023-08-06T12:52:17;1.98;;;1.17;;
22543;SDS011;11438;52.044;8.716;2023-08-06T12:54:44;2.10;;;1.10;;
22543;SDS011;11438;52.044;8.716;2023-08-06T12:57:11;2.67;;;1.30;;
22543;SDS011;11438;52.044;8.716;2023-08-06T12:59:37;1.33;;;1.13;;
22543;SDS011;11438;52.044;8.716;2023-08-06T13:02:03;0.95;;;0.90;;
22543;SDS011;11438;52.044;8.716;2023-08-06T13:04:29;2.00;;;1.30;;
22543;SDS011;11438;52.044;8.716;2023-08-06T13:06:55;2.63;;;1.45;;
22543;SDS011;11438;52.044;8.716;2023-08-06T13:09:20;2.70;;;1.17;;
22543;SDS011;11438;52.044;8.716;2023-08-06T13:11:46;1.23;;;1.00;;
22543;SDS011;11438;52.044;8.716;2023-08-06T13:14:15;1.90;;;1.40;;
22543;SDS011;11438;52.044;8.716;2023-08-06T13:16:41;1.75;;;1.20;;
22543;SDS011;11438;52.044;8.716;2023-08-06T13:19:08;1.65;;;1.10;;
22543;SDS011;11438;52.044;8.716;2023-08-06T13:21:35;2.00;;;1.40;;
22543;SDS011;11438;52.044;8.716;2023-08-06T13:24:21;2.53;;;1.30;;
22543;SDS011;11438;52.044;8.716;2023-08-06T13:26:46;1.55;;;1.20;;
22543;SDS011;11438;52.044;8.716;2023-08-06T13:29:12;1.08;;;0.93;;
22543;SDS011;11438;52.044;8.716;2023-08-06T13:31:37;1.73;;;1.20;;
22543;SDS011;11438;52.044;8.716;2023-08-06T13:34:03;2.13;;;1.20;;
22543;SDS011;11438;52.044;8.716;2023-08-06T13:36:29;1.67;;;1.20;;
22543;SDS011;11438;52.044;8.716;2023-08-06T13:38:55;1.88;;;1.30;;
22543;SDS011;11438;52.044;8.716;2023-08-06T13:41:21;1.27;;;1.00;;
22543;SDS011;11438;52.044;8.716;2023-08-06T13:43:46;1.13;;;1.00;;
22543;SDS011;11438;52.044;8.716;2023-08-06T13:46:12;1.85;;;1.10;;
22543;SDS011;11438;52.044;8.716;2023-08-06T13:48:43;1.75;;;1.17;;
22543;SDS011;11438;52.044;8.716;2023-08-06T13:51:09;2.30;;;1.20;;
22543;SDS011;11438;52.044;8.716;2023-08-06T13:53:36;2.40;;;1.10;;
22543;SDS011;11438;52.044;8.716;2023-08-06T13:56:02;1.40;;;1.20;;
22543;SDS011;11438;52.044;8.716;2023-08-06T13:58:28;1.20;;;1.05;;
22543;SDS011;11438;52.044;8.716;2023-08-06T14:00:53;1.50;;;1.23;;
22543;SDS011;11438;52.044;8.716;2023-08-06T14:03:19;1.92;;;0.93;;
22543;SDS011;11438;52.044;8.716;2023-08-06T14:05:45;1.50;;;1.10;;
22543;SDS011;11438;52.044;8.716;2023-08-06T14:08:11;1.58;;;1.20;;
22543;SDS011;11438;52.044;8.716;2023-08-06T14:10:36;2.08;;;1.13;;
22543;SDS011;11438;52.044;8.716;2023-08-06T14:13:02;1.08;;;0.98;;
22543;SDS011;11438;52.044;8.716;2023-08-06T14:15:27;1.25;;;0.95;;
22543;SDS011;11438;52.044;8.716;2023-08-06T14:17:53;1.42;;;1.05;;
22543;SDS011;11438;52.044;8.716;2023-08-06T14:20:19;2.17;;;1.17;;
22543;SDS011;11438;52.044;8.716;2023-08-06T14:22:44;2.88;;;1.20;;
22543;SDS011;11438;52.044;8.716;2023-08-06T14:25:10;2.30;;;1.30;;
22543;SDS011;11438;52.044;8.716;2023-08-06T14:27:35;2.45;;;1.10;;
22543;SDS011;11438;52.044;8.716;2023-08-06T14:30:01;4.32;;;1.30;;
22543;SDS011;11438;52.044;8.716;2023-08-06T14:32:28;1.88;;;1.40;;
22543;SDS011;11438;52.044;8.716;2023-08-06T14:34:53;2.88;;;1.40;;
22543;SDS011;11438;52.044;8.716;2023-08-06T14:37:19;2.42;;;1.25;;
22543;SDS011;11438;52.044;8.716;2023-08-06T14:39:45;1.58;;;1.30;;
22543;SDS011;11438;52.044;8.716;2023-08-06T14:42:10;1.45;;;1.20;;
22543;SDS011;11438;52.044;8.716;2023-08-06T14:44:36;1.88;;;1.10;;
22543;SDS011;11438;52.044;8.716;2023-08-06T14:47:01;2.13;;;1.38;;
22543;SDS011;11438;52.044;8.716;2023-08-06T14:49:27;4.00;;;1.40;;